This is the latest recevied weather packets stored in our database for station/object W8CWV-13. If no packets are shown the sender has not sent any weather packets the latest 10 day(s).
| Time | Temp. | Humidity | Pressure | Rain* | Wind** | Luminosity | Snow |
|---|---|---|---|---|---|---|---|
| 1777579413 | 17.78° C | 100% | 1019 hPa | - | - | - | - |
| 1777578844 | 21.11° C | 100% | 1018.1 hPa | - | - | - | - |
| 1777578266 | 20° C | 100% | 1017.6 hPa | - | - | - | - |
| 1777577688 | 17.22° C | 100% | 1018.3 hPa | - | - | - | - |
| 1777577116 | 17.78° C | 100% | 1019.5 hPa | - | - | - | - |
| 1777576539 | 18.89° C | 100% | 1019.5 hPa | - | - | - | - |
| 1777575971 | 20° C | 100% | 1019.7 hPa | - | - | - | - |
| 1777575399 | 20.56° C | 100% | 1019.5 hPa | - | - | - | - |
| 1777574828 | 19.44° C | 100% | 1019.3 hPa | - | - | - | - |
| 1777574260 | 19.44° C | 100% | 1020.1 hPa | - | - | - | - |
| 1777573683 | 19.44° C | 100% | 1019.7 hPa | - | - | - | - |
| 1777573106 | 20° C | 100% | 1019.9 hPa | - | - | - | - |
| 1777572529 | 18.89° C | 100% | 1019.9 hPa | - | - | - | - |
| 1777571954 | 18.89° C | 100% | 1020 hPa | - | - | - | - |
| 1777571388 | 19.44° C | 100% | 1018.5 hPa | - | - | - | - |
| 1777570809 | 17.78° C | 100% | 1020.2 hPa | - | - | - | - |
| 1777570237 | 18.89° C | 100% | 1019.8 hPa | - | - | - | - |
| 1777569664 | 20.56° C | 100% | 1019.2 hPa | - | - | - | - |
| 1777569092 | 20.56° C | 100% | 1018.6 hPa | - | - | - | - |
| 1777568522 | 19.44° C | 100% | 1020.2 hPa | - | - | - | - |
| 1777567944 | 20° C | 100% | 1018.5 hPa | - | - | - | - |
| 1777567367 | 20.56° C | 100% | 1018.4 hPa | - | - | - | - |
| 1777566794 | 20.56° C | 100% | 1017.8 hPa | - | - | - | - |
| 1777566225 | 19.44° C | 100% | 1018.7 hPa | - | - | - | - |
| 1777565641 | 19.44° C | 100% | 1018.7 hPa | - | - | - | - |
* Rain since midnight (hover to see other rain measurements)
** Current wind speed in m/s (hover to see current wind gust speed)